sensor_id;sensor_type;location;lat;lon;timestamp;P1;durP1;ratioP1;P2;durP2;ratioP2
13855;SDS011;6998;53.608;9.958;2023-07-13T00:02:03;3.25;;;2.30;;
13855;SDS011;6998;53.608;9.958;2023-07-13T00:04:31;4.35;;;2.65;;
13855;SDS011;6998;53.608;9.958;2023-07-13T00:06:58;4.63;;;2.50;;
13855;SDS011;6998;53.608;9.958;2023-07-13T00:09:25;4.88;;;2.30;;
13855;SDS011;6998;53.608;9.958;2023-07-13T00:11:52;5.72;;;2.45;;
13855;SDS011;6998;53.608;9.958;2023-07-13T00:14:23;5.13;;;2.85;;
13855;SDS011;6998;53.608;9.958;2023-07-13T00:16:50;4.78;;;2.55;;
13855;SDS011;6998;53.608;9.958;2023-07-13T00:19:17;3.00;;;2.53;;
13855;SDS011;6998;53.608;9.958;2023-07-13T00:21:46;3.72;;;2.30;;
13855;SDS011;6998;53.608;9.958;2023-07-13T00:24:13;3.95;;;2.40;;
13855;SDS011;6998;53.608;9.958;2023-07-13T00:26:43;4.07;;;2.63;;
13855;SDS011;6998;53.608;9.958;2023-07-13T00:29:10;4.13;;;2.60;;
13855;SDS011;6998;53.608;9.958;2023-07-13T00:31:37;3.50;;;2.15;;
13855;SDS011;6998;53.608;9.958;2023-07-13T00:34:04;3.25;;;2.50;;
13855;SDS011;6998;53.608;9.958;2023-07-13T00:36:31;3.90;;;2.60;;
13855;SDS011;6998;53.608;9.958;2023-07-13T00:38:59;5.68;;;2.70;;
13855;SDS011;6998;53.608;9.958;2023-07-13T00:41:26;4.35;;;2.75;;
13855;SDS011;6998;53.608;9.958;2023-07-13T00:43:53;3.90;;;2.65;;
13855;SDS011;6998;53.608;9.958;2023-07-13T00:46:21;3.67;;;2.53;;
13855;SDS011;6998;53.608;9.958;2023-07-13T00:48:51;4.30;;;2.90;;
13855;SDS011;6998;53.608;9.958;2023-07-13T00:51:23;3.80;;;2.47;;
13855;SDS011;6998;53.608;9.958;2023-07-13T00:53:52;5.53;;;2.50;;
13855;SDS011;6998;53.608;9.958;2023-07-13T00:56:23;2.30;;;2.10;;
13855;SDS011;6998;53.608;9.958;2023-07-13T00:58:51;2.78;;;2.10;;
13855;SDS011;6998;53.608;9.958;2023-07-13T01:01:19;2.17;;;1.98;;
13855;SDS011;6998;53.608;9.958;2023-07-13T01:03:46;2.53;;;2.20;;
13855;SDS011;6998;53.608;9.958;2023-07-13T01:06:12;1.98;;;1.77;;
13855;SDS011;6998;53.608;9.958;2023-07-13T01:08:39;3.67;;;2.10;;
13855;SDS011;6998;53.608;9.958;2023-07-13T01:11:06;2.50;;;2.30;;
13855;SDS011;6998;53.608;9.958;2023-07-13T01:13:35;2.47;;;2.28;;
13855;SDS011;6998;53.608;9.958;2023-07-13T01:16:02;2.20;;;2.00;;
13855;SDS011;6998;53.608;9.958;2023-07-13T01:18:38;3.35;;;2.70;;
13855;SDS011;6998;53.608;9.958;2023-07-13T01:21:06;2.40;;;2.20;;
13855;SDS011;6998;53.608;9.958;2023-07-13T01:23:33;2.63;;;2.38;;
13855;SDS011;6998;53.608;9.958;2023-07-13T01:26:00;3.45;;;2.20;;
13855;SDS011;6998;53.608;9.958;2023-07-13T01:28:28;4.30;;;2.60;;
13855;SDS011;6998;53.608;9.958;2023-07-13T01:30:56;4.05;;;2.90;;
13855;SDS011;6998;53.608;9.958;2023-07-13T01:33:25;2.63;;;2.30;;
13855;SDS011;6998;53.608;9.958;2023-07-13T01:35:52;3.08;;;2.72;;
13855;SDS011;6998;53.608;9.958;2023-07-13T01:38:20;3.10;;;2.80;;
13855;SDS011;6998;53.608;9.958;2023-07-13T01:40:49;3.38;;;2.88;;
13855;SDS011;6998;53.608;9.958;2023-07-13T01:43:16;3.40;;;2.90;;
13855;SDS011;6998;53.608;9.958;2023-07-13T01:45:43;4.13;;;3.40;;
13855;SDS011;6998;53.608;9.958;2023-07-13T01:48:10;4.95;;;3.10;;
13855;SDS011;6998;53.608;9.958;2023-07-13T01:50:37;7.80;;;3.75;;
13855;SDS011;6998;53.608;9.958;2023-07-13T01:53:04;5.70;;;4.30;;
13855;SDS011;6998;53.608;9.958;2023-07-13T01:55:33;6.03;;;3.65;;
13855;SDS011;6998;53.608;9.958;2023-07-13T01:58:00;5.03;;;3.97;;
13855;SDS011;6998;53.608;9.958;2023-07-13T02:00:27;6.28;;;4.40;;
13855;SDS011;6998;53.608;9.958;2023-07-13T02:02:54;5.32;;;3.83;;
13855;SDS011;6998;53.608;9.958;2023-07-13T02:05:21;5.22;;;4.13;;
13855;SDS011;6998;53.608;9.958;2023-07-13T02:07:48;4.15;;;3.75;;
13855;SDS011;6998;53.608;9.958;2023-07-13T02:10:15;4.88;;;4.07;;
13855;SDS011;6998;53.608;9.958;2023-07-13T02:12:43;3.72;;;3.42;;
13855;SDS011;6998;53.608;9.958;2023-07-13T02:15:10;4.25;;;3.25;;
13855;SDS011;6998;53.608;9.958;2023-07-13T02:17:37;4.72;;;4.20;;
13855;SDS011;6998;53.608;9.958;2023-07-13T02:20:04;5.53;;;3.70;;
13855;SDS011;6998;53.608;9.958;2023-07-13T02:22:32;5.07;;;4.13;;
13855;SDS011;6998;53.608;9.958;2023-07-13T02:24:59;5.45;;;4.40;;
13855;SDS011;6998;53.608;9.958;2023-07-13T02:27:26;4.30;;;3.90;;
13855;SDS011;6998;53.608;9.958;2023-07-13T02:29:54;7.47;;;4.82;;
13855;SDS011;6998;53.608;9.958;2023-07-13T02:32:21;5.32;;;4.28;;
13855;SDS011;6998;53.608;9.958;2023-07-13T02:34:50;5.93;;;4.90;;
13855;SDS011;6998;53.608;9.958;2023-07-13T02:37:17;6.72;;;4.97;;
13855;SDS011;6998;53.608;9.958;2023-07-13T02:39:44;4.80;;;4.40;;
13855;SDS011;6998;53.608;9.958;2023-07-13T02:42:10;9.90;;;6.07;;
13855;SDS011;6998;53.608;9.958;2023-07-13T02:44:37;7.45;;;5.63;;
13855;SDS011;6998;53.608;9.958;2023-07-13T02:47:05;5.65;;;5.00;;
13855;SDS011;6998;53.608;9.958;2023-07-13T02:49:32;5.45;;;4.78;;
13855;SDS011;6998;53.608;9.958;2023-07-13T02:51:59;6.40;;;5.40;;
13855;SDS011;6998;53.608;9.958;2023-07-13T02:54:26;6.70;;;5.38;;
13855;SDS011;6998;53.608;9.958;2023-07-13T02:56:53;6.35;;;5.03;;
13855;SDS011;6998;53.608;9.958;2023-07-13T02:59:19;8.07;;;5.55;;
13855;SDS011;6998;53.608;9.958;2023-07-13T03:01:46;7.97;;;5.30;;
13855;SDS011;6998;53.608;9.958;2023-07-13T03:04:14;7.70;;;5.57;;
13855;SDS011;6998;53.608;9.958;2023-07-13T03:06:44;5.80;;;5.22;;
13855;SDS011;6998;53.608;9.958;2023-07-13T03:09:11;8.93;;;5.90;;
13855;SDS011;6998;53.608;9.958;2023-07-13T03:11:38;6.90;;;4.90;;
13855;SDS011;6998;53.608;9.958;2023-07-13T03:14:05;7.60;;;5.47;;
13855;SDS011;6998;53.608;9.958;2023-07-13T03:16:33;6.30;;;5.53;;
13855;SDS011;6998;53.608;9.958;2023-07-13T03:18:59;7.68;;;5.63;;
13855;SDS011;6998;53.608;9.958;2023-07-13T03:21:27;8.18;;;5.63;;
13855;SDS011;6998;53.608;9.958;2023-07-13T03:23:54;6.72;;;5.65;;
13855;SDS011;6998;53.608;9.958;2023-07-13T03:26:21;5.35;;;4.85;;
13855;SDS011;6998;53.608;9.958;2023-07-13T03:28:48;7.30;;;5.43;;
13855;SDS011;6998;53.608;9.958;2023-07-13T03:31:16;8.80;;;5.50;;
13855;SDS011;6998;53.608;9.958;2023-07-13T03:33:44;10.27;;;6.38;;
13855;SDS011;6998;53.608;9.958;2023-07-13T03:36:12;6.20;;;5.60;;
13855;SDS011;6998;53.608;9.958;2023-07-13T03:38:45;6.85;;;5.82;;
13855;SDS011;6998;53.608;9.958;2023-07-13T03:41:13;5.60;;;4.88;;
13855;SDS011;6998;53.608;9.958;2023-07-13T03:43:40;6.28;;;5.63;;
13855;SDS011;6998;53.608;9.958;2023-07-13T03:46:07;6.63;;;5.00;;
13855;SDS011;6998;53.608;9.958;2023-07-13T03:48:34;8.68;;;5.35;;
13855;SDS011;6998;53.608;9.958;2023-07-13T03:51:00;8.95;;;6.22;;
13855;SDS011;6998;53.608;9.958;2023-07-13T03:53:27;5.45;;;4.95;;
13855;SDS011;6998;53.608;9.958;2023-07-13T03:55:56;6.68;;;5.70;;
13855;SDS011;6998;53.608;9.958;2023-07-13T03:58:23;5.60;;;5.07;;
13855;SDS011;6998;53.608;9.958;2023-07-13T04:00:56;7.10;;;5.07;;
13855;SDS011;6998;53.608;9.958;2023-07-13T04:03:24;6.57;;;5.05;;
13855;SDS011;6998;53.608;9.958;2023-07-13T04:05:53;5.03;;;4.55;;
13855;SDS011;6998;53.608;9.958;2023-07-13T04:08:25;6.55;;;4.95;;
13855;SDS011;6998;53.608;9.958;2023-07-13T04:10:52;8.43;;;5.07;;
13855;SDS011;6998;53.608;9.958;2023-07-13T04:13:20;7.55;;;4.55;;
13855;SDS011;6998;53.608;9.958;2023-07-13T04:15:47;8.05;;;4.72;;
13855;SDS011;6998;53.608;9.958;2023-07-13T04:18:14;9.20;;;4.90;;
13855;SDS011;6998;53.608;9.958;2023-07-13T04:20:41;6.70;;;4.50;;
13855;SDS011;6998;53.608;9.958;2023-07-13T04:23:08;9.07;;;5.43;;
13855;SDS011;6998;53.608;9.958;2023-07-13T04:25:35;7.95;;;4.75;;
13855;SDS011;6998;53.608;9.958;2023-07-13T04:28:02;7.07;;;4.95;;
13855;SDS011;6998;53.608;9.958;2023-07-13T04:30:31;8.10;;;4.40;;
13855;SDS011;6998;53.608;9.958;2023-07-13T04:32:58;8.27;;;4.65;;
13855;SDS011;6998;53.608;9.958;2023-07-13T04:35:24;7.38;;;4.63;;
13855;SDS011;6998;53.608;9.958;2023-07-13T04:37:51;8.80;;;4.93;;
13855;SDS011;6998;53.608;9.958;2023-07-13T04:40:18;10.07;;;5.15;;
13855;SDS011;6998;53.608;9.958;2023-07-13T04:42:45;7.80;;;4.70;;
13855;SDS011;6998;53.608;9.958;2023-07-13T04:45:13;10.88;;;5.40;;
13855;SDS011;6998;53.608;9.958;2023-07-13T04:47:41;13.60;;;5.57;;
13855;SDS011;6998;53.608;9.958;2023-07-13T04:50:09;9.80;;;5.70;;
13855;SDS011;6998;53.608;9.958;2023-07-13T04:52:36;8.38;;;5.25;;
13855;SDS011;6998;53.608;9.958;2023-07-13T04:55:04;7.78;;;4.97;;
13855;SDS011;6998;53.608;9.958;2023-07-13T04:57:31;11.23;;;5.53;;
13855;SDS011;6998;53.608;9.958;2023-07-13T04:59:58;12.68;;;5.47;;
13855;SDS011;6998;53.608;9.958;2023-07-13T05:02:26;8.05;;;5.05;;
13855;SDS011;6998;53.608;9.958;2023-07-13T05:04:54;8.50;;;4.78;;
13855;SDS011;6998;53.608;9.958;2023-07-13T05:07:21;8.20;;;4.85;;
13855;SDS011;6998;53.608;9.958;2023-07-13T05:09:48;9.48;;;5.43;;
13855;SDS011;6998;53.608;9.958;2023-07-13T05:12:15;9.02;;;4.80;;
13855;SDS011;6998;53.608;9.958;2023-07-13T05:14:42;11.07;;;4.93;;
13855;SDS011;6998;53.608;9.958;2023-07-13T05:17:08;8.80;;;5.22;;
13855;SDS011;6998;53.608;9.958;2023-07-13T05:19:36;9.90;;;5.32;;
13855;SDS011;6998;53.608;9.958;2023-07-13T05:22:04;7.15;;;4.72;;
13855;SDS011;6998;53.608;9.958;2023-07-13T05:24:31;12.48;;;5.72;;
13855;SDS011;6998;53.608;9.958;2023-07-13T05:26:58;11.90;;;4.93;;
13855;SDS011;6998;53.608;9.958;2023-07-13T05:29:25;9.65;;;5.07;;
13855;SDS011;6998;53.608;9.958;2023-07-13T05:31:52;6.80;;;4.72;;
13855;SDS011;6998;53.608;9.958;2023-07-13T05:34:19;8.15;;;5.03;;
13855;SDS011;6998;53.608;9.958;2023-07-13T05:36:46;10.18;;;5.22;;
13855;SDS011;6998;53.608;9.958;2023-07-13T05:39:14;10.13;;;5.10;;
13855;SDS011;6998;53.608;9.958;2023-07-13T05:41:41;10.40;;;4.75;;
13855;SDS011;6998;53.608;9.958;2023-07-13T05:44:08;11.35;;;5.28;;
13855;SDS011;6998;53.608;9.958;2023-07-13T05:46:35;11.63;;;5.22;;
13855;SDS011;6998;53.608;9.958;2023-07-13T05:49:02;11.45;;;5.38;;
13855;SDS011;6998;53.608;9.958;2023-07-13T05:51:29;14.88;;;5.40;;
13855;SDS011;6998;53.608;9.958;2023-07-13T05:53:56;7.57;;;4.55;;
13855;SDS011;6998;53.608;9.958;2023-07-13T05:56:31;12.27;;;5.55;;
13855;SDS011;6998;53.608;9.958;2023-07-13T05:58:58;10.65;;;5.28;;
13855;SDS011;6998;53.608;9.958;2023-07-13T06:01:25;13.43;;;4.75;;
13855;SDS011;6998;53.608;9.958;2023-07-13T06:03:52;9.02;;;5.63;;
13855;SDS011;6998;53.608;9.958;2023-07-13T06:06:19;12.18;;;5.50;;
13855;SDS011;6998;53.608;9.958;2023-07-13T06:08:46;11.55;;;5.22;;
13855;SDS011;6998;53.608;9.958;2023-07-13T06:11:16;9.95;;;4.85;;
13855;SDS011;6998;53.608;9.958;2023-07-13T06:13:45;12.68;;;5.07;;
13855;SDS011;6998;53.608;9.958;2023-07-13T06:16:12;12.23;;;4.97;;
13855;SDS011;6998;53.608;9.958;2023-07-13T06:18:40;11.48;;;4.30;;
13855;SDS011;6998;53.608;9.958;2023-07-13T06:21:08;10.45;;;4.63;;
13855;SDS011;6998;53.608;9.958;2023-07-13T06:23:42;12.77;;;4.88;;
13855;SDS011;6998;53.608;9.958;2023-07-13T06:26:10;13.27;;;5.00;;
13855;SDS011;6998;53.608;9.958;2023-07-13T06:28:37;8.88;;;4.47;;
13855;SDS011;6998;53.608;9.958;2023-07-13T06:31:07;11.05;;;4.47;;
13855;SDS011;6998;53.608;9.958;2023-07-13T06:33:35;11.35;;;4.80;;
13855;SDS011;6998;53.608;9.958;2023-07-13T06:36:02;9.77;;;4.80;;
13855;SDS011;6998;53.608;9.958;2023-07-13T06:38:30;10.80;;;4.80;;
13855;SDS011;6998;53.608;9.958;2023-07-13T06:40:57;12.02;;;4.38;;
13855;SDS011;6998;53.608;9.958;2023-07-13T06:43:24;14.70;;;4.60;;
13855;SDS011;6998;53.608;9.958;2023-07-13T06:45:54;8.13;;;4.13;;
13855;SDS011;6998;53.608;9.958;2023-07-13T06:48:23;12.05;;;4.50;;
13855;SDS011;6998;53.608;9.958;2023-07-13T06:50:50;10.35;;;4.22;;
13855;SDS011;6998;53.608;9.958;2023-07-13T06:53:18;11.00;;;4.28;;
13855;SDS011;6998;53.608;9.958;2023-07-13T06:55:47;9.75;;;3.60;;
13855;SDS011;6998;53.608;9.958;2023-07-13T06:58:14;12.23;;;4.20;;
13855;SDS011;6998;53.608;9.958;2023-07-13T07:00:42;10.75;;;3.85;;
13855;SDS011;6998;53.608;9.958;2023-07-13T07:03:09;12.48;;;3.72;;
13855;SDS011;6998;53.608;9.958;2023-07-13T07:05:37;10.85;;;3.67;;
13855;SDS011;6998;53.608;9.958;2023-07-13T07:08:04;8.35;;;3.88;;
13855;SDS011;6998;53.608;9.958;2023-07-13T07:10:32;8.95;;;3.65;;
13855;SDS011;6998;53.608;9.958;2023-07-13T07:12:59;12.50;;;4.00;;
13855;SDS011;6998;53.608;9.958;2023-07-13T07:15:28;12.80;;;3.80;;
13855;SDS011;6998;53.608;9.958;2023-07-13T07:17:55;7.93;;;3.22;;
13855;SDS011;6998;53.608;9.958;2023-07-13T07:20:22;10.23;;;3.50;;
13855;SDS011;6998;53.608;9.958;2023-07-13T07:22:51;7.65;;;3.30;;
13855;SDS011;6998;53.608;9.958;2023-07-13T07:25:18;6.93;;;3.30;;
13855;SDS011;6998;53.608;9.958;2023-07-13T07:27:45;12.27;;;3.90;;
13855;SDS011;6998;53.608;9.958;2023-07-13T07:30:12;7.78;;;3.05;;
13855;SDS011;6998;53.608;9.958;2023-07-13T07:32:40;11.07;;;3.40;;
13855;SDS011;6998;53.608;9.958;2023-07-13T07:35:08;7.82;;;3.28;;
13855;SDS011;6998;53.608;9.958;2023-07-13T07:37:35;8.23;;;3.25;;
13855;SDS011;6998;53.608;9.958;2023-07-13T07:40:04;11.10;;;3.22;;
13855;SDS011;6998;53.608;9.958;2023-07-13T07:42:31;9.95;;;3.17;;
13855;SDS011;6998;53.608;9.958;2023-07-13T07:44:58;9.50;;;3.28;;
13855;SDS011;6998;53.608;9.958;2023-07-13T07:47:26;12.30;;;3.70;;
13855;SDS011;6998;53.608;9.958;2023-07-13T07:49:52;10.38;;;3.10;;
13855;SDS011;6998;53.608;9.958;2023-07-13T07:52:19;7.75;;;3.10;;
13855;SDS011;6998;53.608;9.958;2023-07-13T07:54:48;9.25;;;3.38;;
13855;SDS011;6998;53.608;9.958;2023-07-13T07:57:16;10.00;;;3.15;;
13855;SDS011;6998;53.608;9.958;2023-07-13T07:59:43;6.70;;;2.55;;
13855;SDS011;6998;53.608;9.958;2023-07-13T08:02:10;8.80;;;3.08;;
13855;SDS011;6998;53.608;9.958;2023-07-13T08:04:37;7.43;;;3.10;;
13855;SDS011;6998;53.608;9.958;2023-07-13T08:07:07;10.43;;;2.88;;
13855;SDS011;6998;53.608;9.958;2023-07-13T08:09:34;9.75;;;3.15;;
13855;SDS011;6998;53.608;9.958;2023-07-13T08:12:04;7.25;;;2.97;;
13855;SDS011;6998;53.608;9.958;2023-07-13T08:14:33;8.70;;;2.95;;
13855;SDS011;6998;53.608;9.958;2023-07-13T08:17:00;7.28;;;2.65;;
13855;SDS011;6998;53.608;9.958;2023-07-13T08:19:27;8.75;;;2.47;;
13855;SDS011;6998;53.608;9.958;2023-07-13T08:21:53;8.23;;;2.38;;
13855;SDS011;6998;53.608;9.958;2023-07-13T08:24:21;7.30;;;2.72;;
13855;SDS011;6998;53.608;9.958;2023-07-13T08:26:48;9.13;;;3.05;;
13855;SDS011;6998;53.608;9.958;2023-07-13T08:29:17;6.60;;;2.53;;
13855;SDS011;6998;53.608;9.958;2023-07-13T08:31:45;9.98;;;3.00;;
13855;SDS011;6998;53.608;9.958;2023-07-13T08:34:12;5.95;;;2.45;;
13855;SDS011;6998;53.608;9.958;2023-07-13T08:36:40;6.85;;;2.50;;
13855;SDS011;6998;53.608;9.958;2023-07-13T08:39:06;8.65;;;2.72;;
13855;SDS011;6998;53.608;9.958;2023-07-13T08:41:33;7.00;;;2.47;;
13855;SDS011;6998;53.608;9.958;2023-07-13T08:44:01;6.82;;;2.65;;
13855;SDS011;6998;53.608;9.958;2023-07-13T08:46:33;5.55;;;2.65;;
13855;SDS011;6998;53.608;9.958;2023-07-13T08:49:05;8.63;;;3.00;;
13855;SDS011;6998;53.608;9.958;2023-07-13T08:51:38;8.55;;;2.85;;
13855;SDS011;6998;53.608;9.958;2023-07-13T08:54:12;7.10;;;3.03;;
13855;SDS011;6998;53.608;9.958;2023-07-13T08:56:46;10.00;;;2.75;;
13855;SDS011;6998;53.608;9.958;2023-07-13T08:59:14;9.07;;;2.83;;
13855;SDS011;6998;53.608;9.958;2023-07-13T09:01:56;7.40;;;2.90;;
13855;SDS011;6998;53.608;9.958;2023-07-13T09:04:45;6.47;;;2.63;;
13855;SDS011;6998;53.608;9.958;2023-07-13T09:07:16;7.35;;;2.20;;
13855;SDS011;6998;53.608;9.958;2023-07-13T09:09:52;6.50;;;2.60;;
13855;SDS011;6998;53.608;9.958;2023-07-13T09:12:30;4.22;;;2.42;;
13855;SDS011;6998;53.608;9.958;2023-07-13T09:15:02;6.72;;;2.50;;
13855;SDS011;6998;53.608;9.958;2023-07-13T09:17:32;5.18;;;2.38;;
13855;SDS011;6998;53.608;9.958;2023-07-13T09:20:06;8.80;;;2.58;;
13855;SDS011;6998;53.608;9.958;2023-07-13T09:22:43;7.45;;;2.63;;
13855;SDS011;6998;53.608;9.958;2023-07-13T09:25:13;4.43;;;2.40;;
13855;SDS011;6998;53.608;9.958;2023-07-13T09:27:58;5.72;;;2.53;;
13855;SDS011;6998;53.608;9.958;2023-07-13T09:30:42;6.38;;;2.85;;
13855;SDS011;6998;53.608;9.958;2023-07-13T09:33:17;5.65;;;2.10;;
13855;SDS011;6998;53.608;9.958;2023-07-13T09:35:45;6.68;;;2.25;;
13855;SDS011;6998;53.608;9.958;2023-07-13T09:38:13;6.68;;;2.38;;
13855;SDS011;6998;53.608;9.958;2023-07-13T09:40:49;6.05;;;2.33;;
13855;SDS011;6998;53.608;9.958;2023-07-13T09:43:25;8.82;;;2.28;;
13855;SDS011;6998;53.608;9.958;2023-07-13T09:45:53;5.00;;;2.38;;
13855;SDS011;6998;53.608;9.958;2023-07-13T09:48:21;5.65;;;2.35;;
13855;SDS011;6998;53.608;9.958;2023-07-13T09:50:51;5.78;;;2.53;;
13855;SDS011;6998;53.608;9.958;2023-07-13T09:53:22;6.40;;;2.42;;
13855;SDS011;6998;53.608;9.958;2023-07-13T09:55:49;7.43;;;2.33;;
13855;SDS011;6998;53.608;9.958;2023-07-13T09:58:17;6.43;;;2.13;;
13855;SDS011;6998;53.608;9.958;2023-07-13T10:00:53;7.80;;;2.55;;
13855;SDS011;6998;53.608;9.958;2023-07-13T10:03:23;5.93;;;2.30;;
13855;SDS011;6998;53.608;9.958;2023-07-13T10:05:53;6.75;;;2.63;;
13855;SDS011;6998;53.608;9.958;2023-07-13T10:08:22;7.75;;;2.63;;
13855;SDS011;6998;53.608;9.958;2023-07-13T10:10:53;6.50;;;2.20;;
13855;SDS011;6998;53.608;9.958;2023-07-13T10:13:26;6.15;;;2.20;;
13855;SDS011;6998;53.608;9.958;2023-07-13T10:15:57;5.22;;;2.38;;
13855;SDS011;6998;53.608;9.958;2023-07-13T10:18:25;6.30;;;2.35;;
13855;SDS011;6998;53.608;9.958;2023-07-13T10:20:58;5.07;;;2.58;;
13855;SDS011;6998;53.608;9.958;2023-07-13T10:23:36;3.72;;;2.22;;
13855;SDS011;6998;53.608;9.958;2023-07-13T10:26:03;4.63;;;2.17;;
13855;SDS011;6998;53.608;9.958;2023-07-13T10:28:35;6.43;;;2.35;;
13855;SDS011;6998;53.608;9.958;2023-07-13T10:31:04;4.90;;;2.05;;
13855;SDS011;6998;53.608;9.958;2023-07-13T10:33:38;6.28;;;2.20;;
13855;SDS011;6998;53.608;9.958;2023-07-13T10:36:12;4.65;;;2.00;;
13855;SDS011;6998;53.608;9.958;2023-07-13T10:38:54;3.92;;;2.15;;
13855;SDS011;6998;53.608;9.958;2023-07-13T10:41:29;3.60;;;1.80;;
13855;SDS011;6998;53.608;9.958;2023-07-13T10:44:05;5.03;;;2.15;;
13855;SDS011;6998;53.608;9.958;2023-07-13T10:46:43;4.55;;;2.00;;
13855;SDS011;6998;53.608;9.958;2023-07-13T10:49:12;4.45;;;1.83;;
13855;SDS011;6998;53.608;9.958;2023-07-13T10:51:41;5.40;;;1.73;;
13855;SDS011;6998;53.608;9.958;2023-07-13T10:54:14;4.07;;;1.95;;
13855;SDS011;6998;53.608;9.958;2023-07-13T10:56:44;3.58;;;1.67;;
13855;SDS011;6998;53.608;9.958;2023-07-13T10:59:13;4.07;;;2.15;;
13855;SDS011;6998;53.608;9.958;2023-07-13T11:01:50;3.67;;;2.10;;
13855;SDS011;6998;53.608;9.958;2023-07-13T11:04:22;4.63;;;2.00;;
13855;SDS011;6998;53.608;9.958;2023-07-13T11:06:56;3.58;;;2.00;;
13855;SDS011;6998;53.608;9.958;2023-07-13T11:09:54;4.45;;;1.70;;
13855;SDS011;6998;53.608;9.958;2023-07-13T11:12:29;3.33;;;1.88;;
13855;SDS011;6998;53.608;9.958;2023-07-13T11:15:27;4.63;;;1.98;;
13855;SDS011;6998;53.608;9.958;2023-07-13T11:18:19;5.80;;;1.90;;
13855;SDS011;6998;53.608;9.958;2023-07-13T11:20:48;5.65;;;1.70;;
13855;SDS011;6998;53.608;9.958;2023-07-13T11:29:14;5.18;;;2.25;;
13855;SDS011;6998;53.608;9.958;2023-07-13T11:32:09;2.75;;;1.52;;
13855;SDS011;6998;53.608;9.958;2023-07-13T11:34:51;3.28;;;1.60;;
13855;SDS011;6998;53.608;9.958;2023-07-13T11:37:21;5.32;;;1.90;;
13855;SDS011;6998;53.608;9.958;2023-07-13T11:39:55;4.07;;;1.85;;
13855;SDS011;6998;53.608;9.958;2023-07-13T11:42:23;3.38;;;1.60;;
13855;SDS011;6998;53.608;9.958;2023-07-13T11:44:51;5.97;;;1.90;;
13855;SDS011;6998;53.608;9.958;2023-07-13T11:47:21;4.60;;;1.70;;
13855;SDS011;6998;53.608;9.958;2023-07-13T11:49:52;3.65;;;1.35;;
13855;SDS011;6998;53.608;9.958;2023-07-13T11:52:21;2.70;;;1.55;;
13855;SDS011;6998;53.608;9.958;2023-07-13T11:54:51;2.25;;;1.45;;
13855;SDS011;6998;53.608;9.958;2023-07-13T11:57:23;4.18;;;1.67;;
13855;SDS011;6998;53.608;9.958;2023-07-13T11:59:56;5.43;;;1.65;;
13855;SDS011;6998;53.608;9.958;2023-07-13T12:02:28;2.47;;;1.33;;
13855;SDS011;6998;53.608;9.958;2023-07-13T12:04:57;3.58;;;1.90;;
13855;SDS011;6998;53.608;9.958;2023-07-13T12:07:27;5.72;;;2.03;;
13855;SDS011;6998;53.608;9.958;2023-07-13T12:09:59;3.83;;;2.00;;
13855;SDS011;6998;53.608;9.958;2023-07-13T12:12:29;4.47;;;1.40;;
13855;SDS011;6998;53.608;9.958;2023-07-13T12:14:56;6.72;;;2.35;;
13855;SDS011;6998;53.608;9.958;2023-07-13T12:17:24;8.98;;;2.92;;
13855;SDS011;6998;53.608;9.958;2023-07-13T12:19:51;7.53;;;2.70;;
13855;SDS011;6998;53.608;9.958;2023-07-13T12:22:19;9.38;;;2.60;;
13855;SDS011;6998;53.608;9.958;2023-07-13T12:24:48;6.47;;;2.28;;
13855;SDS011;6998;53.608;9.958;2023-07-13T12:27:18;6.60;;;2.30;;
13855;SDS011;6998;53.608;9.958;2023-07-13T12:29:53;5.72;;;2.45;;
13855;SDS011;6998;53.608;9.958;2023-07-13T12:32:25;6.95;;;2.20;;
13855;SDS011;6998;53.608;9.958;2023-07-13T12:34:55;8.70;;;2.58;;
13855;SDS011;6998;53.608;9.958;2023-07-13T12:37:23;5.43;;;2.42;;
13855;SDS011;6998;53.608;9.958;2023-07-13T12:39:51;4.15;;;2.50;;
13855;SDS011;6998;53.608;9.958;2023-07-13T12:42:22;4.50;;;2.47;;
13855;SDS011;6998;53.608;9.958;2023-07-13T12:44:54;5.80;;;2.50;;
13855;SDS011;6998;53.608;9.958;2023-07-13T12:47:26;6.88;;;2.38;;
13855;SDS011;6998;53.608;9.958;2023-07-13T12:50:12;5.38;;;2.63;;
13855;SDS011;6998;53.608;9.958;2023-07-13T12:52:50;7.05;;;2.30;;
13855;SDS011;6998;53.608;9.958;2023-07-13T12:55:18;4.00;;;2.10;;
13855;SDS011;6998;53.608;9.958;2023-07-13T12:58:57;5.40;;;2.10;;
13855;SDS011;6998;53.608;9.958;2023-07-13T13:03:55;4.43;;;2.17;;
13855;SDS011;6998;53.608;9.958;2023-07-13T13:06:23;3.08;;;1.90;;
13855;SDS011;6998;53.608;9.958;2023-07-13T13:08:52;4.80;;;2.13;;
13855;SDS011;6998;53.608;9.958;2023-07-13T13:11:21;3.67;;;1.85;;
13855;SDS011;6998;53.608;9.958;2023-07-13T13:13:49;3.25;;;1.80;;
13855;SDS011;6998;53.608;9.958;2023-07-13T13:16:19;2.40;;;1.60;;
13855;SDS011;6998;53.608;9.958;2023-07-13T13:18:50;3.17;;;1.77;;
13855;SDS011;6998;53.608;9.958;2023-07-13T13:21:18;2.70;;;1.60;;
13855;SDS011;6998;53.608;9.958;2023-07-13T13:23:45;4.55;;;1.77;;
13855;SDS011;6998;53.608;9.958;2023-07-13T13:26:14;2.05;;;1.50;;
13855;SDS011;6998;53.608;9.958;2023-07-13T13:28:41;2.70;;;1.60;;
13855;SDS011;6998;53.608;9.958;2023-07-13T13:31:12;2.05;;;1.30;;
13855;SDS011;6998;53.608;9.958;2023-07-13T13:33:40;2.40;;;1.42;;
13855;SDS011;6998;53.608;9.958;2023-07-13T13:36:15;3.83;;;1.85;;
13855;SDS011;6998;53.608;9.958;2023-07-13T13:38:42;5.05;;;1.63;;
13855;SDS011;6998;53.608;9.958;2023-07-13T13:41:09;3.63;;;1.67;;
13855;SDS011;6998;53.608;9.958;2023-07-13T13:43:38;1.58;;;1.20;;
13855;SDS011;6998;53.608;9.958;2023-07-13T13:46:11;3.25;;;1.52;;
13855;SDS011;6998;53.608;9.958;2023-07-13T13:48:41;2.47;;;1.40;;
13855;SDS011;6998;53.608;9.958;2023-07-13T13:51:12;2.72;;;1.60;;
13855;SDS011;6998;53.608;9.958;2023-07-13T13:53:43;4.00;;;1.60;;
13855;SDS011;6998;53.608;9.958;2023-07-13T13:56:10;5.57;;;1.60;;
13855;SDS011;6998;53.608;9.958;2023-07-13T13:58:38;1.98;;;1.48;;
13855;SDS011;6998;53.608;9.958;2023-07-13T14:01:05;4.43;;;1.73;;
13855;SDS011;6998;53.608;9.958;2023-07-13T14:03:39;2.75;;;1.52;;
13855;SDS011;6998;53.608;9.958;2023-07-13T14:06:07;2.60;;;1.60;;
13855;SDS011;6998;53.608;9.958;2023-07-13T14:08:38;2.78;;;1.42;;
13855;SDS011;6998;53.608;9.958;2023-07-13T14:11:05;2.10;;;1.67;;
13855;SDS011;6998;53.608;9.958;2023-07-13T14:13:36;4.22;;;1.88;;
13855;SDS011;6998;53.608;9.958;2023-07-13T14:16:09;2.00;;;1.20;;
13855;SDS011;6998;53.608;9.958;2023-07-13T14:18:37;2.40;;;1.65;;
13855;SDS011;6998;53.608;9.958;2023-07-13T14:21:08;2.55;;;1.73;;
13855;SDS011;6998;53.608;9.958;2023-07-13T14:23:39;2.55;;;1.38;;
13855;SDS011;6998;53.608;9.958;2023-07-13T14:26:08;2.95;;;1.60;;
13855;SDS011;6998;53.608;9.958;2023-07-13T14:28:37;4.15;;;1.98;;
13855;SDS011;6998;53.608;9.958;2023-07-13T14:31:08;1.88;;;1.30;;
13855;SDS011;6998;53.608;9.958;2023-07-13T14:33:35;1.67;;;1.40;;
13855;SDS011;6998;53.608;9.958;2023-07-13T14:36:01;1.77;;;1.38;;
13855;SDS011;6998;53.608;9.958;2023-07-13T14:38:28;2.00;;;1.65;;
13855;SDS011;6998;53.608;9.958;2023-07-13T14:40:58;2.45;;;1.70;;
13855;SDS011;6998;53.608;9.958;2023-07-13T14:43:24;3.20;;;1.50;;
13855;SDS011;6998;53.608;9.958;2023-07-13T14:45:53;4.55;;;1.70;;
13855;SDS011;6998;53.608;9.958;2023-07-13T14:48:21;3.10;;;1.58;;
13855;SDS011;6998;53.608;9.958;2023-07-13T14:50:50;3.10;;;1.70;;
13855;SDS011;6998;53.608;9.958;2023-07-13T14:53:20;2.17;;;1.60;;
13855;SDS011;6998;53.608;9.958;2023-07-13T14:55:47;3.63;;;1.75;;
13855;SDS011;6998;53.608;9.958;2023-07-13T14:58:15;3.90;;;1.88;;
13855;SDS011;6998;53.608;9.958;2023-07-13T15:00:42;3.60;;;1.70;;
13855;SDS011;6998;53.608;9.958;2023-07-13T15:03:13;2.22;;;1.63;;
13855;SDS011;6998;53.608;9.958;2023-07-13T15:05:47;2.20;;;1.60;;
13855;SDS011;6998;53.608;9.958;2023-07-13T15:08:14;2.85;;;1.65;;
13855;SDS011;6998;53.608;9.958;2023-07-13T15:10:41;2.08;;;1.83;;
13855;SDS011;6998;53.608;9.958;2023-07-13T15:13:16;3.28;;;1.63;;
13855;SDS011;6998;53.608;9.958;2023-07-13T15:15:45;3.45;;;1.85;;
13855;SDS011;6998;53.608;9.958;2023-07-13T15:18:13;5.63;;;1.90;;
13855;SDS011;6998;53.608;9.958;2023-07-13T15:20:43;3.28;;;2.10;;
13855;SDS011;6998;53.608;9.958;2023-07-13T15:23:11;3.35;;;2.10;;